Time;durP1;ratioP1;P1;durP2;ratioP2;P2;SDS_P1;SDS_P2;PMS_P1;PMS_P2;Temp;Humidity;BMP_temperature;BMP_pressure;BME280_temperature;BME280_humidity;BME280_pressure;Samples;Min_cycle;Max_cycle;Signal;HPM_P1;HPM_P2
2022/09/25 00:00:03;;;;;;;;;;;;;;;11.12;100.00;96511.38;30001;983;1881;-62
2022/09/25 00:00:34;;;;;;;;;;;;;;;11.11;100.00;96507.84;30001;983;1863;-62
2022/09/25 00:01:05;;;;;;;;;;;;;;;11.10;100.00;96514.38;30001;983;1872;-57
2022/09/25 00:01:36;;;;;;;;;;;;;;;11.09;100.00;96507.34;30001;982;1877;-62
2022/09/25 00:02:07;;;;;;;;;;;;;;;11.09;100.00;96515.50;30001;982;1881;-63
2022/09/25 00:02:38;;;;;;;;;;;;;;;11.07;100.00;96509.59;30001;982;1877;-62
2022/09/25 00:03:09;;;;;;;;;;;;;;;11.07;100.00;96507.69;30001;982;1882;-63
2022/09/25 00:03:42;;;;;;;;;;;;;;;11.06;100.00;96508.78;30001;982;1877;-62
2022/09/25 00:04:13;;;;;;;;;;;;;;;11.07;100.00;96509.59;30001;982;1868;-63
2022/09/25 00:04:43;;;;;;;;;;;;;;;11.06;100.00;96513.41;30001;982;1869;-62
2022/09/25 00:05:14;;;;;;;;;;;;;;;11.06;100.00;96513.41;30001;983;1868;-62
2022/09/25 00:05:46;;;;;;;;;;;;;;;11.05;100.00;96504.47;30001;983;1868;-62
2022/09/25 00:06:21;;;;;;;;;;;;;;;11.04;100.00;96511.00;30001;983;1881;-62
2022/09/25 00:06:52;;;;;;;;;;;;;;;11.04;100.00;96504.78;30001;983;1877;-63
2022/09/25 00:07:23;;;;;;;;;;;;;;;11.02;100.00;96513.22;30001;983;1868;-62
2022/09/25 00:07:55;;;;;;;;;;;;;;;11.01;100.00;96506.19;30001;983;1868;-61
2022/09/25 00:08:26;;;;;;;;;;;;;;;11.00;100.00;96506.47;30001;983;1881;-63
2022/09/25 00:09:00;;;;;;;;;;;;;;;10.99;100.00;96508.38;30001;983;1877;-63
2022/09/25 00:09:31;;;;;;;;;;;;;;;11.01;100.00;96510.81;30001;982;1881;-63
2022/09/25 00:10:02;;;;;;;;;;;;;;;11.01;100.00;96510.81;30001;984;1877;-62
2022/09/25 00:10:34;;;;;;;;;;;;;;;11.00;100.00;96510.00;30001;982;1881;-62
2022/09/25 00:11:06;;;;;;;;;;;;;;;11.02;100.00;96509.69;30001;984;1877;-62
2022/09/25 00:11:37;;;;;;;;;;;;;;;11.01;100.00;96508.88;30001;982;1869;-62
2022/09/25 00:12:08;;;;;;;;;;;;;;;11.02;100.00;96513.22;30001;982;1868;-58
2022/09/25 00:12:43;;;;;;;;;;;;;;;11.02;100.00;96518.66;30001;983;1881;-62
2022/09/25 00:13:15;;;;;;;;;;;;;;;11.02;100.00;96512.41;30001;983;1877;-62
2022/09/25 00:13:47;;;;;;;;;;;;;;;11.01;100.00;96510.81;30001;983;1868;-62
2022/09/25 00:14:17;;;;;;;;;;;;;;;11.00;100.00;96509.19;30001;983;1868;-63
2022/09/25 00:14:51;;;;;;;;;;;;;;;10.99;100.00;96513.00;30001;983;1881;-62
2022/09/25 00:15:26;;;;;;;;;;;;;;;10.99;100.00;96513.00;30001;983;1877;-61
2022/09/25 00:15:57;;;;;;;;;;;;;;;10.99;100.00;96510.31;30001;983;1881;-62
2022/09/25 00:16:29;;;;;;;;;;;;;;;10.98;100.00;96514.12;30001;983;1877;-63
2022/09/25 00:17:00;;;;;;;;;;;;;;;10.97;100.00;96509.81;30001;982;1881;-63
2022/09/25 00:17:32;;;;;;;;;;;;;;;10.97;100.00;96504.38;30001;982;1877;-63
2022/09/25 00:18:04;;;;;;;;;;;;;;;10.97;100.00;96515.22;30001;982;1881;-62
2022/09/25 00:20:15;;;;;;;;;;;;;;;10.95;100.00;96509.31;30001;983;1868;-63
2022/09/25 00:20:46;;;;;;;;;;;;;;;10.95;100.00;96506.59;30001;983;1868;-63
2022/09/25 00:21:17;;;;;;;;;;;;;;;10.95;100.00;96507.38;30001;983;1868;-63
2022/09/25 00:21:51;;;;;;;;;;;;;;;10.94;100.00;96504.97;30001;983;1881;-63
2022/09/25 00:22:26;;;;;;;;;;;;;;;10.95;100.00;96506.59;30001;983;1864;-63
2022/09/25 00:22:58;;;;;;;;;;;;;;;10.95;100.00;96503.88;30001;983;1872;-62
2022/09/25 00:23:30;;;;;;;;;;;;;;;10.94;100.00;96504.97;30001;983;1877;-59
2022/09/25 00:24:02;;;;;;;;;;;;;;;10.94;100.00;96510.41;30001;983;1881;-62
2022/09/25 00:24:34;;;;;;;;;;;;;;;10.92;100.00;96504.47;30001;970;1884;-61
2022/09/25 00:25:05;;;;;;;;;;;;;;;10.92;100.00;96501.75;30001;982;1873;-62
2022/09/25 00:25:36;;;;;;;;;;;;;;;10.91;100.00;96505.59;30001;982;1877;-58
2022/09/25 00:26:07;;;;;;;;;;;;;;;10.90;100.00;96510.22;30001;982;1882;-63
2022/09/25 00:26:40;;;;;;;;;;;;;;;10.89;100.00;96505.88;30001;983;1876;-62
2022/09/25 00:27:11;;;;;;;;;;;;;;;10.90;100.00;96503.97;30001;983;1881;-63
2022/09/25 00:27:42;;;;;;;;;;;;;;;10.90;100.00;96503.97;30001;983;1876;-63
2022/09/25 00:28:13;;;;;;;;;;;;;;;10.89;100.00;96507.78;30001;983;1881;-62
2022/09/25 00:28:44;;;;;;;;;;;;;;;10.88;100.00;96504.28;30001;983;1877;-62
2022/09/25 00:29:17;;;;;;;;;;;;;;;10.87;100.00;96504.56;30001;983;1881;-58
2022/09/25 00:29:48;;;;;;;;;;;;;;;10.87;100.00;96507.28;30001;983;1863;-62
2022/09/25 00:30:19;;;;;;;;;;;;;;;10.87;100.00;96507.28;30001;983;1872;-64
2022/09/25 00:30:51;;;;;;;;;;;;;;;10.85;100.00;96499.44;30001;983;1877;-58
2022/09/25 00:31:25;;;;;;;;;;;;;;;10.86;100.00;96503.78;30001;983;1881;-58
2022/09/25 00:31:59;;;;;;;;;;;;;;;10.86;100.00;96502.97;30001;982;1877;-63
2022/09/25 00:32:31;;;;;;;;;;;;;;;10.85;100.00;96501.38;30001;982;1881;-63
2022/09/25 00:33:02;;;;;;;;;;;;;;;10.85;100.00;96502.16;30001;982;1864;-58
2022/09/25 00:33:33;;;;;;;;;;;;;;;10.85;100.00;96495.94;30001;982;1873;-62
2022/09/25 00:34:08;;;;;;;;;;;;;;;10.85;100.00;96501.38;30001;982;1877;-63
2022/09/25 00:34:40;;;;;;;;;;;;;;;10.85;100.00;96499.44;30001;983;1868;-62
2022/09/25 00:35:11;;;;;;;;;;;;;;;10.84;100.00;96499.75;30001;983;1868;-63
2022/09/25 00:35:42;;;;;;;;;;;;;;;10.85;100.00;96506.78;30001;983;1881;-64
2022/09/25 00:36:12;;;;;;;;;;;;;;;10.85;100.00;96507.59;30001;983;1877;-63
2022/09/25 00:36:43;;;;;;;;;;;;;;;10.85;100.00;96498.66;30001;983;1881;-63
2022/09/25 00:37:14;;;;;;;;;;;;;;;10.85;100.00;96498.66;30001;983;1876;-63
2022/09/25 00:37:45;;;;;;;;;;;;;;;10.87;100.00;96504.56;30001;983;1881;-63
2022/09/25 00:38:15;;;;;;;;;;;;;;;10.88;100.00;96511.63;30001;983;1877;-63
2022/09/25 00:38:47;;;;;;;;;;;;;;;10.90;100.00;96498.53;30001;983;1868;-62
2022/09/25 00:39:18;;;;;;;;;;;;;;;10.90;100.00;96498.53;30001;982;1868;-63
2022/09/25 00:39:49;;;;;;;;;;;;;;;10.90;100.00;96498.53;30001;982;1881;-63
2022/09/25 00:40:20;;;;;;;;;;;;;;;10.90;100.00;96496.63;30001;982;1877;-63
2022/09/25 00:40:51;;;;;;;;;;;;;;;10.90;100.00;96498.53;30001;982;1882;-63
2022/09/25 00:41:24;;;;;;;;;;;;;;;10.89;100.00;96495.03;30001;982;1877;-63
2022/09/25 00:41:58;;;;;;;;;;;;;;;10.90;100.00;96498.53;30001;983;1881;-62
2022/09/25 00:42:32;;;;;;;;;;;;;;;10.90;100.00;96495.84;30001;983;1876;-63
2022/09/25 00:43:05;;;;;;;;;;;;;;;10.89;100.00;96492.31;30001;983;1881;-62
2022/09/25 00:43:37;;;;;;;;;;;;;;;10.91;100.00;96494.72;30001;983;1863;-63
2022/09/25 00:44:26;;;;;;;;;;;;;;;10.90;100.00;96487.69;30002;983;1872;-63
2022/09/25 00:45:01;;;;;;;;;;;;;;;10.91;100.00;96486.59;30002;983;1868;-63
2022/09/25 00:45:32;;;;;;;;;;;;;;;10.91;100.00;96489.28;30002;983;1881;-64
2022/09/25 00:46:06;;;;;;;;;;;;;;;10.90;100.00;96482.25;30002;983;1877;-63
2022/09/25 00:46:39;;;;;;;;;;;;;;;10.91;100.00;96484.66;30002;983;1881;-63
2022/09/25 00:47:11;;;;;;;;;;;;;;;10.91;100.00;96489.28;30002;982;1877;-63
2022/09/25 00:47:49;;;;;;;;;;;;;;;10.91;100.00;96484.66;30002;982;1860;-63
2022/09/25 00:48:20;;;;;;;;;;;;;;;10.91;100.00;96483.88;30002;982;1877;-62
2022/09/25 00:48:57;;;;;;;;;;;;;;;10.90;100.00;96480.34;30002;982;1771;-63
2022/09/25 00:49:28;;;;;;;;;;;;;;;10.91;100.00;96481.16;30002;983;1868;-59
2022/09/25 00:50:00;;;;;;;;;;;;;;;10.91;100.00;96475.72;30002;983;1881;-62
2022/09/25 00:50:35;;;;;;;;;;;;;;;10.92;100.00;96480.03;30002;983;1877;-63
2022/09/25 00:51:05;;;;;;;;;;;;;;;10.92;100.00;96480.03;30002;983;1881;-59
2022/09/25 00:51:47;;;;;;;;;;;;;;;10.93;100.00;96476.22;30002;983;1877;-63
2022/09/25 00:52:18;;;;;;;;;;;;;;;10.93;100.00;96477.03;30002;983;1881;-63
2022/09/25 00:52:52;;;;;;;;;;;;;;;10.93;100.00;96476.22;30002;983;1877;-62
2022/09/25 00:53:29;;;;;;;;;;;;;;;10.94;100.00;96477.84;30002;983;1868;-64
2022/09/25 00:54:03;;;;;;;;;;;;;;;10.95;100.00;96474.00;30002;983;1868;-62
2022/09/25 00:54:37;;;;;;;;;;;;;;;10.93;100.00;96471.59;30002;982;1881;-63
2022/09/25 00:55:08;;;;;;;;;;;;;;;10.92;100.00;96478.13;30002;982;1877;-62
2022/09/25 00:55:42;;;;;;;;;;;;;;;10.92;100.00;96474.63;30002;982;1882;-64
2022/09/25 00:56:13;;;;;;;;;;;;;;;10.91;100.00;96478.44;30002;982;1877;-63
2022/09/25 00:56:47;;;;;;;;;;;;;;;10.90;100.00;96468.69;30002;982;1882;-62
2022/09/25 00:57:19;;;;;;;;;;;;;;;10.90;100.00;96474.13;30002;983;1876;-63
2022/09/25 00:57:55;;;;;;;;;;;;;;;10.89;100.00;96470.59;30002;983;1881;-62
2022/09/25 00:58:27;;;;;;;;;;;;;;;10.88;100.00;96473.63;30002;983;1863;-62
2022/09/25 00:58:59;;;;;;;;;;;;;;;10.88;100.00;96468.19;30002;983;1872;-58
2022/09/25 00:59:37;;;;;;;;;;;;;;;10.87;100.00;96477.44;30002;983;1877;-62
2022/09/25 01:00:10;;;;;;;;;;;;;;;10.87;100.00;96472.00;30002;983;1881;-63
2022/09/25 01:00:41;;;;;;;;;;;;;;;10.85;100.00;96469.59;30002;983;1877;-63
2022/09/25 01:01:13;;;;;;;;;;;;;;;10.84;100.00;96462.56;30002;982;1881;-63
2022/09/25 01:01:45;;;;;;;;;;;;;;;10.85;100.00;96474.22;30002;982;1877;-62
2022/09/25 01:02:18;;;;;;;;;;;;;;;10.84;100.00;96462.56;30002;982;1881;-63
2022/09/25 01:02:54;;;;;;;;;;;;;;;10.85;100.00;96468.78;30002;982;1864;-64
2022/09/25 01:03:26;;;;;;;;;;;;;;;10.84;100.00;96468.00;30002;982;1872;-63
2022/09/25 01:03:58;;;;;;;;;;;;;;;10.85;100.00;96463.38;30002;975;1884;-58
2022/09/25 01:04:32;;;;;;;;;;;;;;;10.82;100.00;96463.97;30002;983;1881;-58
2022/09/25 01:05:08;;;;;;;;;;;;;;;10.82;100.00;96461.25;30002;983;1876;-63
2022/09/25 01:05:41;;;;;;;;;;;;;;;10.81;100.00;96474.03;30002;983;1880;-63
2022/09/25 01:06:14;;;;;;;;;;;;;;;10.80;100.00;96466.19;30002;983;1876;-63
2022/09/25 01:06:45;;;;;;;;;;;;;;;10.81;100.00;96467.78;30002;983;1868;-62
2022/09/25 01:07:16;;;;;;;;;;;;;;;10.81;100.00;96474.03;30002;983;1855;-63
2022/09/25 01:07:48;;;;;;;;;;;;;;;10.81;100.00;96467.78;30002;983;1868;-58
2022/09/25 01:08:24;;;;;;;;;;;;;;;10.78;100.00;96460.25;30002;983;1868;-63
2022/09/25 01:08:56;;;;;;;;;;;;;;;10.79;100.00;96464.59;30002;982;1881;-58
2022/09/25 01:09:27;;;;;;;;;;;;;;;10.79;100.00;96464.59;30002;982;1877;-62
2022/09/25 01:10:01;;;;;;;;;;;;;;;10.79;100.00;96465.37;30002;982;1881;-62
2022/09/25 01:10:32;;;;;;;;;;;;;;;10.80;100.00;96463.47;30002;982;1877;-62
2022/09/25 01:11:03;;;;;;;;;;;;;;;10.81;100.00;96467.78;30002;982;1881;-64
2022/09/25 01:11:34;;;;;;;;;;;;;;;10.82;100.00;96458.53;30002;982;1877;-63
2022/09/25 01:12:04;;;;;;;;;;;;;;;10.84;100.00;96456.34;30002;983;1881;-63
2022/09/25 01:12:37;;;;;;;;;;;;;;;10.85;100.00;96461.47;30002;983;1876;-63
2022/09/25 01:13:10;;;;;;;;;;;;;;;10.87;100.00;96455.72;30002;983;1868;-63
2022/09/25 01:13:41;;;;;;;;;;;;;;;10.88;100.00;96457.34;30002;983;1868;-62
2022/09/25 01:14:16;;;;;;;;;;;;;;;10.88;100.00;96457.34;30002;983;1881;-58
2022/09/25 01:14:47;;;;;;;;;;;;;;;10.89;100.00;96459.75;30002;983;1863;-63
2022/09/25 01:15:19;;;;;;;;;;;;;;;10.87;100.00;96455.72;30002;983;1872;-62
2022/09/25 01:16:13;;;;;;;;;;;;;;;10.88;100.00;96460.03;30002;983;1877;-58
2022/09/25 01:16:49;;;;;;;;;;;;;;;10.85;100.00;96461.47;30002;982;1876;-63
2022/09/25 01:17:31;;;;;;;;;;;;;;;10.85;100.00;96463.38;30002;982;1877;-64
2022/09/25 01:18:10;;;;;;;;;;;;;;;10.84;100.00;96464.47;30002;982;1881;-63
2022/09/25 01:19:09;;;;;;;;;;;;;;;10.84;100.00;96453.62;30002;982;1864;-62
2022/09/25 01:20:12;;;;;;;;;;;;;;;10.84;100.00;96464.47;30002;983;1868;-62
2022/09/25 01:20:52;;;;;;;;;;;;;;;10.83;100.00;96460.97;30002;983;1872;-64
2022/09/25 01:21:28;;;;;;;;;;;;;;;10.85;100.00;96457.94;30002;983;1881;-63
2022/09/25 01:22:17;;;;;;;;;;;;;;;10.85;100.00;96460.66;30002;983;1877;-63
2022/09/25 01:23:17;;;;;;;;;;;;;;;10.85;100.00;96463.38;30002;983;1859;-62
2022/09/25 01:23:55;;;;;;;;;;;;;;;10.86;100.00;96470.41;30002;982;1864;-64
2022/09/25 01:24:48;;;;;;;;;;;;;;;10.86;100.00;96464.97;30002;982;1881;-64
2022/09/25 01:25:39;;;;;;;;;;;;;;;10.83;100.00;96460.16;30002;982;1859;-58
2022/09/25 01:26:28;;;;;;;;;;;;;;;10.81;100.00;96457.75;30002;982;1855;-59
2022/09/25 01:27:22;;;;;;;;;;;;;;;10.79;100.00;96464.59;30002;983;1867;-58
2022/09/25 01:28:22;;;;;;;;;;;;;;;10.77;100.00;96459.47;30002;983;1876;-62
2022/09/25 01:29:11;;;;;;;;;;;;;;;10.80;100.00;96461.56;30002;983;1872;-63
2022/09/25 01:30:00;;;;;;;;;;;;;;;10.81;100.00;96456.94;30002;983;1872;-59
2022/09/25 01:30:36;;;;;;;;;;;;;;;10.83;100.00;96465.59;30002;983;1864;-63
2022/09/25 01:31:10;;;;;;;;;;;;;;;10.83;100.00;96460.16;30002;983;1873;-62
2022/09/25 01:31:44;;;;;;;;;;;;;;;10.84;100.00;96461.75;30002;982;1877;-62
2022/09/25 01:32:53;;;;;;;;;;;;;;;10.85;100.00;96457.94;30002;982;1881;-63
2022/09/25 01:33:30;;;;;;;;;;;;;;;10.85;100.00;96457.94;30002;982;1859;-59
2022/09/25 01:34:05;;;;;;;;;;;;;;;10.84;100.00;96459.03;30002;983;1872;-62
2022/09/25 01:34:49;;;;;;;;;;;;;;;10.84;100.00;96461.75;30001;983;1876;-64
2022/09/25 01:35:33;;;;;;;;;;;;;;;10.84;100.00;96461.75;30001;983;1881;-63
2022/09/25 01:36:11;;;;;;;;;;;;;;;10.83;100.00;96466.38;30001;983;1876;-62
2022/09/25 01:36:46;;;;;;;;;;;;;;;10.84;100.00;96469.91;30001;983;1881;-59
2022/09/25 01:37:28;;;;;;;;;;;;;;;10.84;100.00;96464.47;30001;983;1863;-63
2022/09/25 01:38:09;;;;;;;;;;;;;;;10.85;100.00;96468.78;30001;983;1859;-62
2022/09/25 01:38:49;;;;;;;;;;;;;;;10.85;100.00;96463.38;30001;983;1877;-58
2022/09/25 01:39:21;;;;;;;;;;;;;;;10.85;100.00;96461.47;30001;982;1882;-62
2022/09/25 01:41:18;;;;;;;;;;;;;;;10.88;100.00;96469.00;89986;930;18000;-58
2022/09/25 01:41:54;;;;;;;;;;;;;;;10.90;100.00;96474.13;30001;983;1859;-63
2022/09/25 01:42:28;;;;;;;;;;;;;;;10.90;100.00;96474.13;30001;983;1868;-63
2022/09/25 01:43:33;;;;;;;;;;;;;;;10.91;100.00;96470.28;30001;983;1868;-64
2022/09/25 01:44:14;;;;;;;;;;;;;;;10.92;100.00;96471.91;30001;982;1863;-63
2022/09/25 01:44:48;;;;;;;;;;;;;;;10.92;100.00;96469.19;30001;982;1881;-62
2022/09/25 01:45:23;;;;;;;;;;;;;;;10.93;100.00;96478.94;30001;982;1877;-63
2022/09/25 01:46:13;;;;;;;;;;;;;;;10.92;100.00;96470.00;30001;982;1881;-62
2022/09/25 01:46:50;;;;;;;;;;;;;;;10.92;100.00;96480.03;30001;983;1872;-63
2022/09/25 01:47:25;;;;;;;;;;;;;;;10.92;100.00;96480.03;30001;983;1880;-63
2022/09/25 01:47:58;;;;;;;;;;;;;;;10.92;100.00;96480.03;30001;983;1863;-63
2022/09/25 01:48:31;;;;;;;;;;;;;;;10.90;100.00;96477.63;30001;983;1872;-63
2022/09/25 01:49:07;;;;;;;;;;;;;;;10.90;100.00;96472.22;30001;983;1863;-63
2022/09/25 01:49:41;;;;;;;;;;;;;;;10.90;100.00;96482.25;30001;983;1872;-63
2022/09/25 01:50:13;;;;;;;;;;;;;;;10.90;100.00;96471.41;30001;983;1877;-63
2022/09/25 01:50:50;;;;;;;;;;;;;;;10.88;100.00;96479.03;30001;986;1881;-63
2022/09/25 01:51:23;;;;;;;;;;;;;;;10.89;100.00;96476.03;30001;982;1877;-58
2022/09/25 01:51:54;;;;;;;;;;;;;;;10.90;100.00;96471.41;30001;982;1881;-63
2022/09/25 01:52:38;;;;;;;;;;;;;;;10.90;100.00;96474.13;30001;986;1868;-63
2022/09/25 01:53:13;;;;;;;;;;;;;;;10.89;100.00;96472.50;30001;982;1881;-62
2022/09/25 01:53:46;;;;;;;;;;;;;;;10.90;100.00;96468.69;30001;982;1864;-62
2022/09/25 01:54:21;;;;;;;;;;;;;;;10.91;100.00;96478.44;30001;983;1872;-63
2022/09/25 01:54:54;;;;;;;;;;;;;;;10.90;100.00;96476.84;30001;983;1876;-63
2022/09/25 01:56:38;;;;;;;;;;;;;;;10.91;100.00;96478.44;89986;930;18000;-63
2022/09/25 01:57:13;;;;;;;;;;;;;;;10.91;100.00;96473.00;30001;982;1868;-63
2022/09/25 01:57:54;;;;;;;;;;;;;;;10.92;100.00;96474.63;30001;982;1868;-63
2022/09/25 01:58:38;;;;;;;;;;;;;;;10.92;100.00;96471.91;30001;982;1881;-62
2022/09/25 01:59:22;;;;;;;;;;;;;;;10.91;100.00;96473.00;30001;983;1862;-63
2022/09/25 02:00:08;;;;;;;;;;;;;;;10.90;100.00;96471.41;30001;983;1871;-63
2022/09/25 02:00:49;;;;;;;;;;;;;;;10.91;100.00;96478.44;30001;983;1876;-64
2022/09/25 02:01:25;;;;;;;;;;;;;;;10.89;100.00;96481.47;30001;983;1867;-63
2022/09/25 02:02:00;;;;;;;;;;;;;;;10.90;100.00;96474.13;30001;983;1867;-63
2022/09/25 02:02:36;;;;;;;;;;;;;;;10.90;100.00;96477.63;30001;983;1867;-63
2022/09/25 02:03:13;;;;;;;;;;;;;;;10.90;100.00;96474.13;30001;983;1868;-61
2022/09/25 02:03:50;;;;;;;;;;;;;;;10.92;100.00;96478.13;30001;983;1867;-63
2022/09/25 02:04:27;;;;;;;;;;;;;;;10.91;100.00;96473.81;30001;982;1868;-62
2022/09/25 02:05:03;;;;;;;;;;;;;;;10.91;100.00;96473.81;30001;982;1868;-63
2022/09/25 02:05:51;;;;;;;;;;;;;;;10.91;100.00;96467.59;30001;982;1868;-63
2022/09/25 02:06:24;;;;;;;;;;;;;;;10.93;100.00;96476.22;30001;983;1867;-63
2022/09/25 02:06:57;;;;;;;;;;;;;;;10.92;100.00;96469.19;30001;983;1867;-63
2022/09/25 02:07:35;;;;;;;;;;;;;;;10.91;100.00;96479.25;30001;983;1880;-64
2022/09/25 02:08:17;;;;;;;;;;;;;;;10.92;100.00;96480.03;30001;983;1876;-62
2022/09/25 02:08:52;;;;;;;;;;;;;;;10.94;100.00;96477.84;30001;983;1880;-63
2022/09/25 02:09:45;;;;;;;;;;;;;;;10.91;100.00;96476.53;30001;983;1863;-64
2022/09/25 02:10:22;;;;;;;;;;;;;;;10.90;100.00;96471.41;30001;983;1863;-63
2022/09/25 02:10:57;;;;;;;;;;;;;;;10.89;100.00;96469.78;30001;983;1876;-63
2022/09/25 02:11:31;;;;;;;;;;;;;;;10.88;100.00;96468.19;30001;982;1881;-63
2022/09/25 02:12:11;;;;;;;;;;;;;;;10.88;100.00;96468.19;30001;982;1876;-63
2022/09/25 02:12:45;;;;;;;;;;;;;;;10.87;100.00;96461.16;30001;982;1881;-63
2022/09/25 02:13:19;;;;;;;;;;;;;;;10.87;100.00;96467.38;30001;982;1877;-62
2022/09/25 02:13:54;;;;;;;;;;;;;;;10.87;100.00;96464.66;30001;982;1881;-63
2022/09/25 02:14:48;;;;;;;;;;;;;;;10.88;100.00;96462.75;30001;983;1863;-64
2022/09/25 02:15:23;;;;;;;;;;;;;;;10.88;100.00;96462.75;30001;983;1867;-62
2022/09/25 02:15:56;;;;;;;;;;;;;;;10.88;100.00;96460.84;30001;983;1876;-63
2022/09/25 02:16:34;;;;;;;;;;;;;;;10.89;100.00;96464.37;30001;983;1880;-63
2022/09/25 02:17:07;;;;;;;;;;;;;;;10.89;100.00;96476.03;30001;983;1876;-63
2022/09/25 02:20:33;;;;;;;;;;;;;;;10.92;100.00;96474.63;30001;982;1868;-63
2022/09/25 02:21:26;;;;;;;;;;;;;;;10.92;100.00;96472.72;30001;982;1868;-64
2022/09/25 02:22:03;;;;;;;;;;;;;;;10.91;100.00;96473.00;30001;983;1867;-63
2022/09/25 02:22:34;;;;;;;;;;;;;;;10.91;100.00;96473.00;30001;983;1880;-57
2022/09/25 02:23:10;;;;;;;;;;;;;;;10.91;100.00;96468.38;30001;983;1863;-57
2022/09/25 02:23:52;;;;;;;;;;;;;;;10.92;100.00;96469.19;30001;983;1871;-64
2022/09/25 02:24:35;;;;;;;;;;;;;;;10.91;100.00;96462.97;30001;983;1876;-62
2022/09/25 02:25:11;;;;;;;;;;;;;;;10.92;100.00;96469.19;30001;983;1880;-62
2022/09/25 02:25:45;;;;;;;;;;;;;;;10.92;100.00;96470.00;30001;982;1876;-63
2022/09/25 02:26:21;;;;;;;;;;;;;;;10.91;100.00;96468.38;30001;982;1867;-63
2022/09/25 02:26:52;;;;;;;;;;;;;;;10.92;100.00;96469.19;30001;982;1868;-64
2022/09/25 02:27:26;;;;;;;;;;;;;;;10.91;100.00;96473.00;30001;982;1881;-63
2022/09/25 02:27:57;;;;;;;;;;;;;;;10.91;100.00;96467.59;30001;982;1877;-64
2022/09/25 02:28:28;;;;;;;;;;;;;;;10.92;100.00;96469.19;30001;982;1881;-62
2022/09/25 02:28:59;;;;;;;;;;;;;;;10.92;100.00;96463.75;30001;982;1877;-58
2022/09/25 02:29:31;;;;;;;;;;;;;;;10.92;100.00;96467.28;30001;983;1867;-63
2022/09/25 02:30:02;;;;;;;;;;;;;;;10.93;100.00;96468.88;30001;983;1854;-64
2022/09/25 02:30:34;;;;;;;;;;;;;;;10.93;100.00;96465.37;30001;983;1880;-63
2022/09/25 02:31:07;;;;;;;;;;;;;;;10.94;100.00;96461.53;30001;983;1876;-62
2022/09/25 02:31:42;;;;;;;;;;;;;;;10.93;100.00;96460.75;30001;983;1880;-63
2022/09/25 02:32:18;;;;;;;;;;;;;;;10.92;100.00;96459.13;30001;983;1876;-62
2022/09/25 02:32:49;;;;;;;;;;;;;;;10.93;100.00;96460.75;30001;983;1880;-57
2022/09/25 02:33:20;;;;;;;;;;;;;;;10.94;100.00;96464.25;30001;982;1876;-63
2022/09/25 02:33:51;;;;;;;;;;;;;;;10.95;100.00;96463.16;30001;982;1880;-62
2022/09/25 02:34:22;;;;;;;;;;;;;;;10.94;100.00;96462.34;30001;982;1863;-63
2022/09/25 02:34:53;;;;;;;;;;;;;;;10.94;100.00;96461.53;30001;982;1859;-64
2022/09/25 02:35:24;;;;;;;;;;;;;;;10.94;100.00;96462.34;30001;973;1895;-61
2022/09/25 02:35:57;;;;;;;;;;;;;;;10.94;100.00;96456.91;30001;982;1881;-64
2022/09/25 02:36:28;;;;;;;;;;;;;;;10.95;100.00;96463.97;30001;982;1876;-62
2022/09/25 02:36:59;;;;;;;;;;;;;;;10.95;100.00;96458.53;30001;983;1880;-62
2022/09/25 02:37:30;;;;;;;;;;;;;;;10.95;100.00;96463.16;30001;983;1876;-63
2022/09/25 02:38:01;;;;;;;;;;;;;;;10.96;100.00;96464.75;30001;983;1880;-58
2022/09/25 02:38:34;;;;;;;;;;;;;;;10.96;100.00;96459.34;30001;983;1876;-63
2022/09/25 02:39:07;;;;;;;;;;;;;;;10.97;100.00;96471.78;30001;983;1880;-57
2022/09/25 02:39:39;;;;;;;;;;;;;;;10.98;100.00;96463.34;30001;983;1876;-63
2022/09/25 02:40:10;;;;;;;;;;;;;;;10.97;100.00;96459.03;30001;983;1867;-62
2022/09/25 02:40:52;;;;;;;;;;;;;;;10.97;100.00;96460.94;30001;983;1868;-64
2022/09/25 02:42:43;;;;;;;;;;;;;;;10.96;100.00;96459.34;89986;930;18000;-64
2022/09/25 02:43:24;;;;;;;;;;;;;;;10.97;100.00;96460.94;30001;982;1868;-63
2022/09/25 02:44:07;;;;;;;;;;;;;;;10.97;100.00;96460.94;30001;982;1854;-63
2022/09/25 02:44:55;;;;;;;;;;;;;;;10.97;100.00;96458.22;30001;982;1881;-63
2022/09/25 02:45:36;;;;;;;;;;;;;;;10.97;100.00;96466.38;30001;983;1875;-58
2022/09/25 02:46:14;;;;;;;;;;;;;;;10.97;100.00;96460.94;30001;983;1866;-58
2022/09/25 02:47:08;;;;;;;;;;;;;;;10.96;100.00;96460.12;30001;983;1853;-62
2022/09/25 02:48:01;;;;;;;;;;;;;;;10.97;100.00;96452.78;30001;983;1876;-62
2022/09/25 02:48:53;;;;;;;;;;;;;;;10.97;100.00;96459.03;30001;983;1871;-63
2022/09/25 02:49:52;;;;;;;;;;;;;;;10.98;100.00;96459.84;30001;982;1880;-63
2022/09/25 02:50:40;;;;;;;;;;;;;;;10.98;100.00;96457.13;30001;982;1871;-62
2022/09/25 02:51:27;;;;;;;;;;;;;;;10.98;100.00;96457.13;30001;982;1880;-63
2022/09/25 02:52:08;;;;;;;;;;;;;;;10.98;100.00;96457.13;30001;982;1863;-63
2022/09/25 02:52:58;;;;;;;;;;;;;;;10.99;100.00;96461.44;30001;983;1871;-63
2022/09/25 02:53:55;;;;;;;;;;;;;;;10.98;100.00;96454.41;30001;983;1871;-63
2022/09/25 02:54:30;;;;;;;;;;;;;;;10.97;100.00;96452.78;30001;986;1867;-63
2022/09/25 02:55:14;;;;;;;;;;;;;;;10.96;100.00;96459.34;30001;983;1880;-62
2022/09/25 02:56:03;;;;;;;;;;;;;;;10.96;100.00;96456.63;30001;983;1862;-63
2022/09/25 02:56:37;;;;;;;;;;;;;;;10.96;100.00;96453.91;30001;982;1862;-64
2022/09/25 02:57:27;;;;;;;;;;;;;;;10.96;100.00;96453.91;30001;982;1876;-63
2022/09/25 02:58:03;;;;;;;;;;;;;;;10.97;100.00;96461.75;30001;982;1876;-63
2022/09/25 02:58:36;;;;;;;;;;;;;;;10.97;100.00;96452.78;30001;982;1876;-63
2022/09/25 02:59:17;;;;;;;;;;;;;;;10.97;100.00;96450.88;30001;982;1880;-63
2022/09/25 02:59:52;;;;;;;;;;;;;;;10.96;100.00;96451.19;30001;982;1876;-63
2022/09/25 03:00:23;;;;;;;;;;;;;;;10.96;100.00;96453.91;30001;983;1866;-63
2022/09/25 03:00:56;;;;;;;;;;;;;;;10.96;100.00;96453.91;30001;983;1853;-62
2022/09/25 03:01:30;;;;;;;;;;;;;;;10.96;100.00;96448.47;30001;983;1880;-62
2022/09/25 03:02:01;;;;;;;;;;;;;;;10.97;100.00;96452.78;30001;983;1875;-63
2022/09/25 03:02:33;;;;;;;;;;;;;;;10.96;100.00;96449.28;30001;983;1880;-62
2022/09/25 03:03:06;;;;;;;;;;;;;;;10.97;100.00;96450.06;30001;983;1862;-63
2022/09/25 03:03:38;;;;;;;;;;;;;;;10.98;100.00;96454.41;30001;983;1871;-63
2022/09/25 03:04:10;;;;;;;;;;;;;;;10.98;100.00;96454.41;30001;982;1876;-58
2022/09/25 03:04:41;;;;;;;;;;;;;;;10.98;100.00;96451.69;30001;982;1867;-64
2022/09/25 03:05:13;;;;;;;;;;;;;;;10.98;100.00;96451.69;30001;982;1867;-63
2022/09/25 03:05:46;;;;;;;;;;;;;;;10.98;100.00;96446.25;30001;982;1881;-62
2022/09/25 03:06:17;;;;;;;;;;;;;;;10.99;100.00;96453.28;30001;982;1876;-62
2022/09/25 03:06:48;;;;;;;;;;;;;;;10.98;100.00;96452.50;30001;983;1879;-62
2022/09/25 03:07:20;;;;;;;;;;;;;;;10.98;100.00;96446.25;30001;983;1862;-64
2022/09/25 03:08:50;;;;;;;;;;;;;;;10.98;100.00;96457.13;30001;983;1876;-63
2022/09/25 03:09:22;;;;;;;;;;;;;;;10.99;100.00;96448.66;30001;983;1880;-64
2022/09/25 03:09:54;;;;;;;;;;;;;;;10.99;100.00;96453.28;30001;983;1875;-62
2022/09/25 03:10:26;;;;;;;;;;;;;;;10.99;100.00;96453.28;30001;983;1880;-64
2022/09/25 03:10:58;;;;;;;;;;;;;;;10.99;100.00;96458.72;30001;983;1876;-64
2022/09/25 03:11:29;;;;;;;;;;;;;;;10.99;100.00;96458.72;30001;983;1880;-62
2022/09/25 03:13:13;;;;;;;;;;;;;;;10.98;100.00;96457.13;89986;930;18000;-63
2022/09/25 03:13:45;;;;;;;;;;;;;;;11.00;100.00;96454.91;30001;983;1868;-64
2022/09/25 03:14:16;;;;;;;;;;;;;;;11.00;100.00;96457.63;30001;983;1868;-63
2022/09/25 03:14:46;;;;;;;;;;;;;;;11.01;100.00;96456.50;30001;983;1881;-63
2022/09/25 03:15:18;;;;;;;;;;;;;;;11.01;100.00;96456.50;30001;983;1876;-64
2022/09/25 03:15:51;;;;;;;;;;;;;;;11.00;100.00;96460.34;30001;983;1880;-62
2022/09/25 03:16:50;;;;;;;;;;;;;;;11.00;100.00;96454.91;30001;982;1876;-63
2022/09/25 03:17:22;;;;;;;;;;;;;;;11.00;100.00;96460.34;30001;982;1864;-63
2022/09/25 03:17:53;;;;;;;;;;;;;;;11.01;100.00;96459.22;30001;982;1868;-63
2022/09/25 03:18:24;;;;;;;;;;;;;;;11.00;100.00;96460.34;30001;982;1881;-63
2022/09/25 03:18:55;;;;;;;;;;;;;;;10.99;100.00;96458.72;30001;983;1876;-62